Ontonagon, Michigan
Current Conditions -  °F | °C
As of 5:53 PM on Tuesday 21 Oct 2014 (Local Time) from KCMX Reporting Station
Clear Clear  
Wind Chill: 37°   Ceiling: Unl
Heat Index: 42°   Visibility: 10mi
Dew Point: 31°   Wind: 8mph
Humidity: 65%   Direction: 110°ESE
Pressure: 30.26"   Gusts: NA
Location:  46.87°N, 89.31°W
Report Text: KCMX 212153Z AUTO 11007KT 10SM CLR 06/M01 A3026 RMK AO2 SLP257 T00561006
Loading
Personal Weather Stations






























Interactive Weather Map New forecast layout! Learn more

10-Day Weather Forecast

Advertisements
Track Severe Weather on mobile